Terminal Aerodrome Forecast
Issued by NWS

Home | Current Version | Previous Version | Text Only | Print | Product List | Glossary On
Versions: 1 2 3 4 5 6 7 8 9 10 11 12 13 14
547
FTUS45 KABQ 111139
TAFSAF
TAF
KSAF 111139Z 1112/1212 29011KT P6SM SCT150
     FM111700 30013G23KT P6SM VCSH SCT015 BKN035
     FM112000 30011G21KT P6SM SCT035
     FM112300 30011KT P6SM SCT035
     FM120300 36008KT P6SM SCT200=

USA.gov is the U.S. government's official web portal to all federal, state and local government web resources and services.